createdAt,value
2017-11-11T00:00:51.563Z,47.07
2017-11-11T00:03:17.362Z,47.32
2017-11-11T00:05:43.206Z,47.29
2017-11-11T00:08:08.998Z,47.13
2017-11-11T00:10:34.827Z,47.26
2017-11-11T00:13:01.441Z,47.21
2017-11-11T00:15:27.275Z,47.22
2017-11-11T00:17:53.069Z,47.04
2017-11-11T00:20:19.980Z,46.78
2017-11-11T00:22:45.771Z,46.76
2017-11-11T00:25:11.642Z,46.97
2017-11-11T00:27:37.436Z,46.71
2017-11-11T00:30:03.281Z,46.63
2017-11-11T00:32:29.188Z,46.83
2017-11-11T00:34:55.097Z,47.06
2017-11-11T00:37:20.898Z,46.89
2017-11-11T00:39:46.689Z,46.92
2017-11-11T00:42:12.482Z,46.68
2017-11-11T00:44:38.279Z,46.76
2017-11-11T00:47:04.109Z,46.59
2017-11-11T00:49:29.907Z,47.03
2017-11-11T00:51:55.691Z,46.89
2017-11-11T00:54:21.477Z,47.01
2017-11-11T00:56:47.269Z,46.80
2017-11-11T00:59:13.078Z,46.65
2017-11-11T01:01:38.876Z,46.76
2017-11-11T01:04:04.662Z,47.02
2017-11-11T01:06:30.513Z,46.83
2017-11-11T01:08:56.346Z,46.73
2017-11-11T01:11:22.162Z,46.57
2017-11-11T01:13:47.982Z,46.56
2017-11-11T01:16:13.822Z,46.67
2017-11-11T01:18:39.625Z,46.67
2017-11-11T01:21:05.413Z,46.59
2017-11-11T01:23:31.196Z,46.89
2017-11-11T01:25:56.991Z,46.90
2017-11-11T01:28:22.784Z,47.00
2017-11-11T01:30:48.621Z,46.88
2017-11-11T01:33:14.409Z,46.82
2017-11-11T01:35:40.201Z,46.61
2017-11-11T01:38:05.989Z,46.60
2017-11-11T01:40:31.806Z,46.49
2017-11-11T01:42:57.633Z,46.25
2017-11-11T01:45:23.427Z,45.85
2017-11-11T01:47:49.226Z,46.11
2017-11-11T01:50:15.019Z,46.36
2017-11-11T01:52:40.806Z,46.60
2017-11-11T01:55:06.599Z,47.62
2017-11-11T01:57:32.413Z,46.69
2017-11-11T01:59:58.212Z,47.23
2017-11-11T02:02:24.058Z,47.27
2017-11-11T02:04:49.889Z,46.89
2017-11-11T02:07:15.675Z,46.49
2017-11-11T02:09:41.546Z,46.57
2017-11-11T02:12:07.905Z,46.73
2017-11-11T02:14:33.697Z,46.78
2017-11-11T02:16:59.490Z,47.11
2017-11-11T02:19:25.285Z,46.89
2017-11-11T02:21:51.095Z,46.62
2017-11-11T02:24:16.904Z,46.84
2017-11-11T02:26:42.734Z,46.62
2017-11-11T02:29:08.537Z,46.32
2017-11-11T02:31:34.329Z,46.52
2017-11-11T02:34:00.157Z,46.42
2017-11-11T02:36:25.941Z,46.82
2017-11-11T02:38:51.760Z,46.73
2017-11-11T02:41:17.583Z,46.83
2017-11-11T02:43:43.366Z,46.61
2017-11-11T02:46:09.163Z,46.51
2017-11-11T02:48:34.961Z,46.27
2017-11-11T02:51:00.804Z,46.30
2017-11-11T02:53:26.595Z,46.37
2017-11-11T02:55:52.397Z,46.88
2017-11-11T02:58:18.183Z,46.47
2017-11-11T03:00:44.013Z,47.11
2017-11-11T03:03:09.802Z,47.53
2017-11-11T03:05:35.595Z,46.94
2017-11-11T03:08:01.429Z,46.65
2017-11-11T03:10:27.213Z,46.35
2017-11-11T03:12:53.050Z,46.33
2017-11-11T03:15:18.841Z,46.33
2017-11-11T03:17:44.924Z,46.58
2017-11-11T03:20:10.715Z,46.40
2017-11-11T03:22:36.516Z,46.41
2017-11-11T03:25:02.314Z,46.48
2017-11-11T03:27:28.105Z,46.46
2017-11-11T03:29:53.894Z,46.32
2017-11-11T03:32:19.677Z,46.52
2017-11-11T03:34:45.473Z,46.40
2017-11-11T03:37:11.250Z,46.78
2017-11-11T03:39:37.050Z,46.55
2017-11-11T03:42:02.900Z,46.46
2017-11-11T03:44:28.691Z,46.32
2017-11-11T03:46:54.494Z,46.80
2017-11-11T03:49:20.295Z,46.34
2017-11-11T03:51:46.085Z,46.08
2017-11-11T03:54:11.883Z,46.30
2017-11-11T03:56:37.661Z,46.24
2017-11-11T03:59:03.459Z,46.15
2017-11-11T04:01:29.282Z,45.97
2017-11-11T04:03:55.117Z,45.80
2017-11-11T04:06:20.905Z,45.83
2017-11-11T04:08:46.729Z,46.77
2017-11-11T04:11:12.521Z,46.74
2017-11-11T04:13:38.310Z,46.90
2017-11-11T04:16:04.100Z,47.47
2017-11-11T04:18:29.878Z,47.00
2017-11-11T04:20:55.661Z,46.32
2017-11-11T04:23:21.479Z,46.13
2017-11-11T04:25:47.258Z,46.35
2017-11-11T04:28:13.073Z,46.58
2017-11-11T04:30:38.856Z,46.20
2017-11-11T04:33:04.694Z,46.50
2017-11-11T04:35:30.760Z,46.48
2017-11-11T04:37:56.545Z,46.51
2017-11-11T04:40:22.334Z,47.53
2017-11-11T04:42:48.157Z,46.01
2017-11-11T04:45:13.949Z,46.05
2017-11-11T04:47:39.738Z,46.34
2017-11-11T04:50:05.544Z,46.47
2017-11-11T04:52:31.337Z,47.41
2017-11-11T04:54:57.158Z,46.41
2017-11-11T04:57:23.009Z,46.34
2017-11-11T04:59:49.054Z,46.27
2017-11-11T05:02:14.838Z,46.28
2017-11-11T05:04:40.642Z,46.22
2017-11-11T05:07:06.430Z,46.03
2017-11-11T05:09:32.230Z,46.28
2017-11-11T05:11:58.053Z,46.41
2017-11-11T05:14:23.855Z,46.37
2017-11-11T05:16:49.650Z,46.11
2017-11-11T05:19:15.462Z,46.16
2017-11-11T05:21:41.257Z,46.19
2017-11-11T05:24:07.065Z,46.08
2017-11-11T05:26:32.850Z,46.25
2017-11-11T05:28:58.634Z,46.01
2017-11-11T05:31:24.437Z,46.56
2017-11-11T05:33:50.230Z,46.67
2017-11-11T05:36:16.010Z,45.85
2017-11-11T05:38:41.785Z,45.96
2017-11-11T05:41:07.561Z,46.23
2017-11-11T05:43:33.377Z,46.08
2017-11-11T05:45:59.160Z,45.93
2017-11-11T05:48:24.981Z,45.63
2017-11-11T05:50:50.762Z,45.88
2017-11-11T05:53:16.602Z,46.52
2017-11-11T05:55:42.388Z,46.72
2017-11-11T05:58:08.167Z,46.51
2017-11-11T06:00:33.969Z,46.42
2017-11-11T06:02:59.752Z,46.77
2017-11-11T06:05:25.548Z,46.31
2017-11-11T06:07:51.333Z,46.50
2017-11-11T06:10:17.178Z,46.18
2017-11-11T06:12:42.961Z,46.50
2017-11-11T06:15:08.952Z,46.78
2017-11-11T06:17:34.734Z,46.40
2017-11-11T06:20:00.517Z,46.75
2017-11-11T06:22:26.349Z,46.78
2017-11-11T06:24:52.153Z,46.55
2017-11-11T06:27:17.947Z,46.93
2017-11-11T06:29:43.751Z,45.91
2017-11-11T06:32:09.677Z,45.81
2017-11-11T06:34:35.469Z,46.28
2017-11-11T06:37:01.458Z,46.16
2017-11-11T06:39:27.242Z,46.34
2017-11-11T06:41:53.203Z,46.50
2017-11-11T06:44:18.991Z,46.24
2017-11-11T06:46:45.330Z,45.76
2017-11-11T06:49:11.153Z,45.98
2017-11-11T06:51:36.933Z,46.08
2017-11-11T06:54:02.873Z,46.28
2017-11-11T06:56:28.670Z,46.40
2017-11-11T06:58:54.501Z,47.59
2017-11-11T07:01:20.538Z,46.70
2017-11-11T07:03:46.346Z,46.21
2017-11-11T07:06:12.151Z,46.05
2017-11-11T07:08:37.962Z,46.25
2017-11-11T07:11:03.756Z,46.60
2017-11-11T07:13:29.543Z,46.03
2017-11-11T07:15:55.340Z,46.38
2017-11-11T07:18:21.130Z,46.11
2017-11-11T07:20:46.906Z,46.26
2017-11-11T07:23:12.908Z,45.90
2017-11-11T07:25:38.688Z,46.31
2017-11-11T07:28:04.466Z,46.76
2017-11-11T07:30:30.249Z,46.58
2017-11-11T07:32:56.036Z,46.85
2017-11-11T07:35:22.017Z,47.26
2017-11-11T07:37:47.806Z,46.21
2017-11-11T07:40:13.591Z,46.08
2017-11-11T07:42:39.369Z,46.06
2017-11-11T07:45:05.156Z,46.42
2017-11-11T07:47:30.925Z,46.70
2017-11-11T07:49:56.722Z,46.59
2017-11-11T07:52:22.509Z,46.72
2017-11-11T07:54:48.322Z,46.34
2017-11-11T07:57:14.101Z,46.09
2017-11-11T07:59:40.157Z,46.19
2017-11-11T08:02:05.944Z,46.13
2017-11-11T08:04:31.727Z,46.13
2017-11-11T08:06:57.684Z,46.38
2017-11-11T08:09:23.533Z,45.99
2017-11-11T08:11:49.409Z,46.43
2017-11-11T08:14:15.211Z,46.54
2017-11-11T08:16:41.021Z,46.93
2017-11-11T08:19:06.797Z,46.68
2017-11-11T08:21:32.613Z,46.90
2017-11-11T08:23:58.470Z,46.24
2017-11-11T08:26:24.260Z,45.92
2017-11-11T08:28:50.060Z,45.85
2017-11-11T08:31:15.868Z,45.84
2017-11-11T08:33:41.660Z,45.87
2017-11-11T08:36:07.489Z,45.78
2017-11-11T08:38:33.321Z,45.59
2017-11-11T08:40:59.281Z,45.97
2017-11-11T08:43:25.082Z,46.06
2017-11-11T08:45:50.929Z,46.51
2017-11-11T08:48:16.793Z,46.39
2017-11-11T08:50:42.749Z,46.33
2017-11-11T08:53:08.530Z,45.92
2017-11-11T08:55:34.471Z,46.28
2017-11-11T08:58:00.305Z,46.06
2017-11-11T09:00:26.089Z,46.46
2017-11-11T09:02:52.046Z,46.41
2017-11-11T09:05:17.835Z,46.03
2017-11-11T09:07:43.635Z,46.24
2017-11-11T09:10:09.758Z,45.72
2017-11-11T09:12:35.581Z,45.65
2017-11-11T09:15:01.369Z,45.58
2017-11-11T09:17:27.157Z,45.75
2017-11-11T09:19:52.982Z,46.00
2017-11-11T09:22:18.798Z,45.79
2017-11-11T09:24:44.718Z,45.92
2017-11-11T09:27:10.818Z,45.73
2017-11-11T09:29:36.770Z,45.55
2017-11-11T09:32:02.600Z,45.50
2017-11-11T09:34:28.694Z,45.61
2017-11-11T09:36:54.481Z,45.67
2017-11-11T09:39:20.256Z,45.73
2017-11-11T09:41:46.057Z,45.91
2017-11-11T09:44:11.829Z,45.40
2017-11-11T09:46:37.811Z,45.30
2017-11-11T09:49:03.637Z,44.89
2017-11-11T09:51:29.413Z,45.08
2017-11-11T09:53:55.193Z,45.03
2017-11-11T09:56:20.979Z,45.13
2017-11-11T09:58:46.821Z,45.13
2017-11-11T10:01:12.666Z,45.65
2017-11-11T10:03:38.861Z,45.08
2017-11-11T10:06:04.669Z,45.58
2017-11-11T10:08:30.602Z,45.00
2017-11-11T10:10:56.379Z,45.35
2017-11-11T10:13:22.465Z,45.57
2017-11-11T10:15:48.243Z,45.70
2017-11-11T10:18:14.090Z,45.38
2017-11-11T10:20:40.010Z,45.23
2017-11-11T10:23:05.805Z,45.39
2017-11-11T10:25:31.585Z,45.72
2017-11-11T10:27:57.388Z,46.01
2017-11-11T10:30:23.209Z,46.11
2017-11-11T10:32:48.988Z,46.55
2017-11-11T10:35:14.774Z,45.79
2017-11-11T10:37:40.556Z,46.25
2017-11-11T10:40:06.332Z,45.92
2017-11-11T10:42:32.186Z,45.72
2017-11-11T10:44:57.966Z,44.80
2017-11-11T10:50:19.556Z,44.48
2017-11-11T10:52:45.373Z,45.05
2017-11-11T10:55:11.197Z,44.08
2017-11-11T10:57:36.997Z,45.50
2017-11-11T11:00:02.794Z,44.32
2017-11-11T11:02:28.637Z,44.27
2017-11-11T11:04:54.571Z,44.82
2017-11-11T11:07:20.372Z,44.83
2017-11-11T11:09:46.214Z,44.92
2017-11-11T11:12:12.217Z,44.93
2017-11-11T11:14:38.010Z,44.76
2017-11-11T11:17:03.786Z,45.37
2017-11-11T11:19:29.578Z,44.74
2017-11-11T11:21:55.369Z,45.22
2017-11-11T11:24:21.165Z,45.13
2017-11-11T11:26:46.981Z,45.61
2017-11-11T11:29:12.767Z,45.46
2017-11-11T11:31:38.588Z,45.11
2017-11-11T11:34:04.369Z,45.08
2017-11-11T11:36:30.165Z,45.02
2017-11-11T11:38:55.949Z,45.58
2017-11-11T11:41:21.853Z,45.60
2017-11-11T11:43:47.957Z,45.93
2017-11-11T11:46:13.801Z,45.69
2017-11-11T11:48:39.582Z,45.92
2017-11-11T11:51:05.594Z,45.86
2017-11-11T11:53:33.526Z,46.01
2017-11-11T11:55:59.449Z,45.53
2017-11-11T11:58:25.302Z,45.35
2017-11-11T12:00:51.670Z,45.98
2017-11-11T12:03:17.594Z,45.96
2017-11-11T12:05:43.387Z,45.64
2017-11-11T12:08:09.354Z,45.97
2017-11-11T12:10:35.141Z,45.93
2017-11-11T12:13:00.925Z,45.93
2017-11-11T12:15:26.812Z,46.27
2017-11-11T12:17:52.594Z,45.50
2017-11-11T12:20:19.448Z,45.39
2017-11-11T12:22:45.229Z,45.78
2017-11-11T12:25:11.009Z,46.16
2017-11-11T12:27:36.833Z,45.99
2017-11-11T12:30:02.638Z,45.89
2017-11-11T12:32:28.449Z,45.95
2017-11-11T12:34:54.242Z,46.37
2017-11-11T12:37:20.020Z,45.77
2017-11-11T12:39:45.944Z,45.60
2017-11-11T12:42:11.726Z,45.98
2017-11-11T12:44:37.838Z,45.90
2017-11-11T12:47:03.630Z,45.84
2017-11-11T12:49:29.421Z,45.88
2017-11-11T12:51:55.209Z,45.90
2017-11-11T12:54:21.002Z,45.99
2017-11-11T12:56:47.018Z,45.86
2017-11-11T12:59:13.373Z,45.83
2017-11-11T13:01:39.440Z,45.74
2017-11-11T13:04:05.314Z,45.54
2017-11-11T13:06:31.090Z,46.74
2017-11-11T13:08:56.910Z,45.68
2017-11-11T13:11:22.738Z,45.46
2017-11-11T13:13:48.584Z,45.28
2017-11-11T13:16:14.376Z,45.71
2017-11-11T13:18:40.309Z,45.89
2017-11-11T13:21:06.180Z,46.48
2017-11-11T13:23:32.058Z,46.18
2017-11-11T13:25:58.151Z,46.64
2017-11-11T13:28:24.073Z,46.63
2017-11-11T13:30:49.956Z,46.59
2017-11-11T13:33:15.876Z,46.15
2017-11-11T13:35:41.816Z,45.77
2017-11-11T13:38:07.757Z,46.13
2017-11-11T13:40:33.561Z,46.04
2017-11-11T13:42:59.369Z,46.26
2017-11-11T13:45:25.165Z,46.02
2017-11-11T13:47:50.985Z,46.55
2017-11-11T13:50:16.813Z,46.41
2017-11-11T13:52:42.746Z,46.09
2017-11-11T13:55:08.600Z,45.85
2017-11-11T13:57:34.374Z,45.69
2017-11-11T14:00:00.164Z,45.86
2017-11-11T14:02:25.941Z,45.93
2017-11-11T14:04:51.761Z,46.25
2017-11-11T14:07:17.605Z,46.40
2017-11-11T14:09:43.466Z,46.78
2017-11-11T14:12:09.250Z,46.15
2017-11-11T14:14:35.055Z,46.14
2017-11-11T14:17:00.876Z,46.11
2017-11-11T14:19:26.657Z,46.01
2017-11-11T14:21:52.481Z,46.00
2017-11-11T14:24:18.258Z,46.63
2017-11-11T14:26:44.056Z,46.47
2017-11-11T14:29:09.843Z,46.54
2017-11-11T14:31:35.621Z,46.67
2017-11-11T14:34:01.406Z,46.40
2017-11-11T14:36:27.184Z,46.19
2017-11-11T14:38:53.005Z,46.06
2017-11-11T14:41:18.787Z,47.12
2017-11-11T14:43:44.588Z,46.92
2017-11-11T14:46:10.382Z,46.49
2017-11-11T14:48:36.173Z,46.47
2017-11-11T14:51:01.949Z,46.51
2017-11-11T14:53:27.730Z,46.52
2017-11-11T14:55:53.513Z,46.18
2017-11-11T14:58:19.298Z,46.39
2017-11-11T15:00:45.118Z,46.15
2017-11-11T15:03:10.905Z,46.05
2017-11-11T15:05:36.686Z,46.05
2017-11-11T15:08:02.473Z,45.86
2017-11-11T15:10:28.265Z,45.97
2017-11-11T15:12:54.045Z,45.77
2017-11-11T15:15:19.829Z,45.83
2017-11-11T15:17:45.669Z,46.17
2017-11-11T15:20:11.457Z,46.07
2017-11-11T15:22:37.265Z,45.95
2017-11-11T15:25:03.042Z,45.73
2017-11-11T15:27:28.834Z,46.15
2017-11-11T15:29:54.625Z,45.87
2017-11-11T15:32:20.410Z,45.82
2017-11-11T15:34:46.217Z,45.41
2017-11-11T15:37:11.998Z,46.71
2017-11-11T15:39:37.778Z,45.32
2017-11-11T15:42:03.611Z,45.57
2017-11-11T15:44:29.396Z,46.25
2017-11-11T15:46:55.266Z,45.90
2017-11-11T15:49:21.038Z,45.88
2017-11-11T15:51:46.835Z,45.77
2017-11-11T15:54:12.641Z,45.65
2017-11-11T15:56:38.433Z,46.28
2017-11-11T15:59:14.321Z,45.53
2017-11-11T16:01:40.093Z,46.37
2017-11-11T16:04:05.873Z,46.01
2017-11-11T16:06:31.666Z,45.94
2017-11-11T16:08:57.456Z,46.29
2017-11-11T16:11:23.297Z,46.28
2017-11-11T16:13:49.194Z,45.95
2017-11-11T16:16:15.022Z,45.80
2017-11-11T16:18:40.816Z,45.62
2017-11-11T16:21:06.617Z,45.39
2017-11-11T16:23:32.577Z,45.84
2017-11-11T16:25:58.358Z,45.31
2017-11-11T16:28:24.189Z,45.32
2017-11-11T16:30:50.065Z,45.42
2017-11-11T16:33:15.878Z,45.17
2017-11-11T16:35:41.885Z,45.15
2017-11-11T16:38:07.722Z,45.81
2017-11-11T16:40:33.517Z,44.78
2017-11-11T16:42:59.329Z,44.26
2017-11-11T16:45:25.153Z,43.74
2017-11-11T16:47:50.938Z,43.78
2017-11-11T16:50:16.841Z,43.75
2017-11-11T16:52:42.622Z,43.79
2017-11-11T16:55:08.451Z,43.73
2017-11-11T16:57:34.241Z,43.91
2017-11-11T17:00:00.032Z,43.80
2017-11-11T17:02:25.829Z,43.70
2017-11-11T17:04:51.615Z,43.98
2017-11-11T17:07:17.394Z,43.92
2017-11-11T17:09:43.213Z,43.87
2017-11-11T17:12:09.029Z,44.02
2017-11-11T17:14:34.809Z,44.06
2017-11-11T17:17:00.628Z,43.99
2017-11-11T17:19:26.413Z,44.45
2017-11-11T17:21:52.221Z,45.19
2017-11-11T17:24:18.015Z,44.65
2017-11-11T17:26:43.833Z,44.73
2017-11-11T17:29:09.651Z,44.37
2017-11-11T17:31:35.494Z,45.39
2017-11-11T17:34:01.273Z,45.41
2017-11-11T17:36:27.069Z,44.65
2017-11-11T17:38:52.855Z,45.53
2017-11-11T17:41:18.634Z,45.31
2017-11-11T17:43:44.409Z,44.87
2017-11-11T17:46:10.179Z,44.73
2017-11-11T17:48:36.011Z,45.31
2017-11-11T17:51:01.805Z,45.07
2017-11-11T17:53:27.630Z,45.39
2017-11-11T17:55:53.428Z,45.05
2017-11-11T17:58:19.196Z,45.37
2017-11-11T18:00:44.977Z,45.21
2017-11-11T18:03:10.766Z,44.77
2017-11-11T18:05:36.566Z,44.92
2017-11-11T18:08:02.371Z,45.27
2017-11-11T18:10:28.167Z,45.68
2017-11-11T18:12:53.957Z,45.77
2017-11-11T18:15:19.743Z,45.53
2017-11-11T18:17:45.530Z,45.22
2017-11-11T18:20:11.335Z,45.02
2017-11-11T18:22:37.360Z,44.92
2017-11-11T18:25:03.170Z,45.09
2017-11-11T18:27:28.962Z,45.27
2017-11-11T18:29:54.754Z,45.90
2017-11-11T18:32:20.541Z,46.46
2017-11-11T18:34:46.350Z,45.95
2017-11-11T18:37:12.277Z,46.08
2017-11-11T18:39:38.083Z,45.92
2017-11-11T18:42:04.048Z,45.70
2017-11-11T18:44:29.837Z,46.46
2017-11-11T18:46:55.621Z,45.60
2017-11-11T18:49:23.827Z,46.34
2017-11-11T18:51:50.926Z,45.82
2017-11-11T18:54:16.899Z,46.55
2017-11-11T18:56:42.721Z,46.35
2017-11-11T18:59:08.536Z,45.47
2017-11-11T19:01:34.343Z,45.66
2017-11-11T19:04:00.335Z,46.42
2017-11-11T19:06:26.131Z,46.14
2017-11-11T19:08:51.929Z,46.24
2017-11-11T19:11:17.748Z,46.41
2017-11-11T19:13:43.548Z,46.03
2017-11-11T19:16:09.383Z,45.44
2017-11-11T19:18:35.173Z,48.09
2017-11-11T19:21:01.011Z,46.71
2017-11-11T19:23:26.793Z,47.43
2017-11-11T19:25:52.617Z,46.71
2017-11-11T19:28:18.460Z,47.13
2017-11-11T19:30:44.250Z,46.98
2017-11-11T19:33:10.048Z,45.75
2017-11-11T19:35:35.835Z,46.64
2017-11-11T19:38:01.657Z,46.98
2017-11-11T19:40:27.454Z,46.92
2017-11-11T19:42:53.245Z,46.99
2017-11-11T19:45:19.130Z,47.27
2017-11-11T19:47:45.125Z,46.40
2017-11-11T19:50:10.960Z,45.65
2017-11-11T19:52:36.881Z,45.75
2017-11-11T19:55:02.818Z,45.77
2017-11-11T19:57:28.714Z,46.00
2017-11-11T19:59:54.646Z,46.30
2017-11-11T20:02:20.612Z,46.47
2017-11-11T20:04:46.484Z,46.13
2017-11-11T20:07:12.412Z,46.29
2017-11-11T20:09:38.331Z,45.79
2017-11-11T20:12:04.221Z,46.02
2017-11-11T20:14:30.052Z,46.29
2017-11-11T20:16:55.847Z,46.40
2017-11-11T20:19:21.706Z,46.04
2017-11-11T20:21:47.635Z,46.40
2017-11-11T20:24:13.430Z,45.92
2017-11-11T20:26:39.267Z,46.37
2017-11-11T20:29:05.087Z,45.81
2017-11-11T20:31:31.064Z,45.80
2017-11-11T20:33:56.857Z,46.23
2017-11-11T20:36:22.752Z,46.45
2017-11-11T20:38:48.691Z,46.65
2017-11-11T20:41:14.622Z,46.07
2017-11-11T20:46:26.419Z,46.31
2017-11-11T20:48:52.331Z,47.04
2017-11-11T20:51:18.156Z,45.88
2017-11-11T20:53:43.959Z,46.14
2017-11-11T20:56:09.777Z,46.07
2017-11-11T20:58:35.595Z,46.44
2017-11-11T21:01:01.399Z,46.63
2017-11-11T21:03:27.194Z,46.11
2017-11-11T21:05:53.030Z,46.13
2017-11-11T21:08:18.833Z,46.43
2017-11-11T21:10:44.668Z,46.75
2017-11-11T21:13:10.474Z,46.08
2017-11-11T21:15:36.313Z,47.57
2017-11-11T21:18:02.106Z,46.46
2017-11-11T21:20:28.060Z,46.66
2017-11-11T21:22:53.938Z,46.22
2017-11-11T21:25:19.743Z,46.72
2017-11-11T21:27:45.529Z,46.69
2017-11-11T21:30:11.356Z,46.35
2017-11-11T21:32:37.248Z,46.07
2017-11-11T21:35:03.073Z,46.94
2017-11-11T21:37:28.882Z,47.17
2017-11-11T21:39:54.682Z,46.20
2017-11-11T21:42:20.617Z,47.04
2017-11-11T21:44:46.403Z,46.48
2017-11-11T21:47:12.198Z,46.66
2017-11-11T21:49:38.027Z,46.82
2017-11-11T21:52:03.835Z,45.80
2017-11-11T21:54:29.634Z,45.73
2017-11-11T21:56:55.537Z,47.24
2017-11-11T21:59:21.361Z,46.53
2017-11-11T22:01:47.154Z,46.23
2017-11-11T22:04:12.941Z,46.13
2017-11-11T22:06:38.725Z,46.51
2017-11-11T22:09:04.552Z,46.25
2017-11-11T22:11:30.347Z,45.93
2017-11-11T22:13:56.265Z,46.71
2017-11-11T22:16:22.196Z,46.22
2017-11-11T22:18:48.068Z,46.04
2017-11-11T22:21:13.864Z,46.70
2017-11-11T22:23:39.652Z,46.44
2017-11-11T22:26:05.447Z,46.60
2017-11-11T22:28:31.237Z,46.89
2017-11-11T22:30:57.033Z,46.27
2017-11-11T22:33:22.837Z,46.19
2017-11-11T22:35:48.746Z,46.17
2017-11-11T22:38:14.542Z,47.11
2017-11-11T22:40:40.346Z,45.92
2017-11-11T22:43:06.141Z,46.43
2017-11-11T22:45:31.930Z,47.13
2017-11-11T22:47:57.853Z,46.19
2017-11-11T22:50:23.694Z,46.26
2017-11-11T22:52:52.374Z,46.45
2017-11-11T22:55:19.147Z,46.16
2017-11-11T22:57:46.944Z,46.15
2017-11-11T23:00:12.752Z,46.87
2017-11-11T23:02:40.051Z,46.73
2017-11-11T23:05:06.413Z,46.43
2017-11-11T23:07:32.246Z,46.05
2017-11-11T23:09:58.026Z,46.86
2017-11-11T23:12:23.857Z,46.48
2017-11-11T23:14:49.640Z,46.17
2017-11-11T23:17:15.424Z,45.82
2017-11-11T23:19:41.238Z,46.79
2017-11-11T23:22:07.041Z,45.99
2017-11-11T23:24:32.866Z,47.46
2017-11-11T23:26:58.655Z,46.45
2017-11-11T23:29:24.449Z,46.94
2017-11-11T23:31:50.249Z,46.34
2017-11-11T23:34:16.034Z,46.27
2017-11-11T23:36:41.826Z,45.92
2017-11-11T23:39:07.626Z,47.54
2017-11-11T23:41:33.484Z,46.59
2017-11-11T23:43:59.269Z,46.72
2017-11-11T23:46:25.064Z,46.79
2017-11-11T23:48:50.874Z,46.65
2017-11-11T23:51:16.685Z,46.63
2017-11-11T23:53:42.493Z,46.02
2017-11-11T23:56:08.286Z,46.73
2017-11-11T23:58:34.085Z,46.18
